Time;durP1;ratioP1;P1;durP2;ratioP2;P2;SDS_P1;SDS_P2;PMS_P1;PMS_P2;Temp;Humidity;BMP_temperature;BMP_pressure;BME280_temperature;BME280_humidity;BME280_pressure;Samples;Min_cycle;Max_cycle;Signal;HPM_P1;HPM_P2
2021/11/25 00:00:55;;;;;;;10.75;9.65;;;;;;;16.70;29.78;94953.84;5037284;28;20053;-66
2021/11/25 00:03:22;;;;;;;10.60;9.50;;;;;;;16.83;29.61;94952.91;5025624;28;20155;-63
2021/11/25 00:05:51;;;;;;;10.68;9.57;;;;;;;16.51;29.95;94956.75;5034815;28;20052;-64
2021/11/25 00:08:19;;;;;;;10.88;9.77;;;;;;;16.72;29.71;94962.22;5044651;28;20056;-60
2021/11/25 00:10:47;;;;;;;10.20;9.20;;;;;;;17.86;27.84;94960.66;5048830;28;20038;-53
2021/11/25 00:13:14;;;;;;;10.48;9.38;;;;;;;17.47;28.43;94953.00;5040393;28;20056;-58
2021/11/25 00:15:42;;;;;;;10.65;9.55;;;;;;;16.40;30.01;94956.28;5017220;28;20120;-53
2021/11/25 00:18:10;;;;;;;11.23;10.13;;;;;;;17.32;28.50;94953.50;5042677;28;20048;-64
2021/11/25 00:20:37;;;;;;;10.88;9.77;;;;;;;18.01;27.40;94956.72;5051521;28;20037;-54
2021/11/25 00:23:05;;;;;;;11.45;9.60;;;;;;;17.70;27.75;94957.00;5060365;28;20175;-63
2021/11/25 00:25:34;;;;;;;12.05;10.70;;;;;;;17.19;28.95;94949.94;5046666;28;20353;-65
2021/11/25 00:28:01;;;;;;;11.30;10.20;;;;;;;16.52;30.09;94961.72;5041005;28;20045;-65
2021/11/25 00:30:28;;;;;;;12.52;10.85;;;;;;;16.56;30.20;94970.56;5000236;28;20060;-56
2021/11/25 00:32:56;;;;;;;12.13;10.63;;;;;;;17.06;29.24;94962.22;5041563;28;20064;-65
2021/11/25 00:35:23;;;;;;;12.27;10.95;;;;;;;17.61;28.33;94966.78;5036750;28;20052;-58
2021/11/25 00:37:51;;;;;;;12.68;11.00;;;;;;;17.08;29.00;94970.59;5038135;28;20053;-66
2021/11/25 00:40:19;;;;;;;12.90;11.38;;;;;;;18.26;27.17;94970.94;5039158;28;20049;-59
2021/11/25 00:42:48;;;;;;;11.27;10.15;;;;;;;18.88;26.24;94980.84;5043515;28;20452;-64
2021/11/25 00:45:18;;;;;;;14.25;10.75;;;;;;;17.85;28.03;94958.34;5039609;28;20395;-61
2021/11/25 00:47:45;;;;;;;12.45;10.88;;;;;;;17.85;27.54;94961.75;5041931;28;20123;-64
2021/11/25 00:50:15;;;;;;;11.90;10.63;;;;;;;16.50;29.84;94961.25;5040673;28;20060;-51
2021/11/25 00:52:42;;;;;;;12.25;10.07;;;;;;;17.10;28.82;94957.88;5063020;28;20345;-63
2021/11/25 00:55:14;;;;;;;10.85;9.75;;;;;;;16.06;30.42;94959.59;5046547;28;20503;-63
2021/11/25 00:57:42;;;;;;;10.77;9.63;;;;;;;16.68;29.67;94950.75;5040871;28;20386;-65
2021/11/25 01:00:12;;;;;;;10.80;9.60;;;;;;;16.39;29.90;94954.69;5039919;28;20049;-65
2021/11/25 01:02:40;;;;;;;10.45;9.45;;;;;;;17.46;28.40;94949.59;5057373;28;20052;-63
2021/11/25 01:05:07;;;;;;;12.10;9.68;;;;;;;16.57;29.33;94940.44;5038742;28;20361;-64
2021/11/25 01:07:34;;;;;;;11.48;10.27;;;;;;;16.26;30.20;94950.34;5039333;28;20049;-64
2021/11/25 01:10:03;;;;;;;11.45;10.30;;;;;;;17.09;28.37;94934.41;5057289;28;20049;-66
2021/11/25 01:12:31;;;;;;;10.75;9.65;;;;;;;17.50;28.18;94947.09;5057194;28;20057;-64
2021/11/25 01:14:59;;;;;;;11.25;10.05;;;;;;;17.30;28.36;94942.47;5042397;28;20049;-67
2021/11/25 01:17:28;;;;;;;11.68;10.48;;;;;;;17.76;27.67;94949.69;5038006;28;20360;-65
2021/11/25 01:19:55;;;;;;;10.98;9.88;;;;;;;18.16;26.95;94939.53;5023520;28;20056;-63
2021/11/25 01:22:24;;;;;;;11.50;10.40;;;;;;;16.72;29.63;94941.13;5050557;28;20064;-48
2021/11/25 01:24:51;;;;;;;11.82;10.63;;;;;;;16.19;30.77;94934.19;5046901;28;20045;-54
2021/11/25 01:27:19;;;;;;;11.55;10.35;;;;;;;16.16;30.63;94940.84;5037027;28;20052;-60
2021/11/25 01:29:46;;;;;;;11.30;10.10;;;;;;;15.85;31.18;94925.06;5056348;28;20363;-65
2021/11/25 01:32:13;;;;;;;13.25;10.55;;;;;;;16.49;30.09;94928.03;5039262;28;20052;-53
2021/11/25 01:34:40;;;;;;;12.10;10.82;;;;;;;17.21;28.77;94927.41;5043313;28;20048;-64
2021/11/25 01:37:07;;;;;;;12.57;11.27;;;;;;;16.18;30.64;94927.34;5056747;28;20367;-59
2021/11/25 01:39:34;;;;;;;12.02;10.73;;;;;;;16.55;29.62;94926.78;5056537;28;20041;-63
2021/11/25 01:42:01;;;;;;;11.77;10.50;;;;;;;15.75;30.92;94925.38;5046572;28;20048;-59
2021/11/25 01:44:29;;;;;;;11.93;10.73;;;;;;;16.13;30.50;94930.91;5055005;28;20059;-65
2021/11/25 01:47:04;;;;;;;11.48;10.27;;;;;;;17.06;28.91;94925.25;5056594;28;20047;-66
2021/11/25 01:49:31;;;;;;;10.85;9.70;;;;;;;16.63;29.28;94933.91;5056402;28;20056;-66
2021/11/25 01:51:58;;;;;;;11.18;9.82;;;;;;;17.52;27.88;94931.69;5055788;28;20045;-67
2021/11/25 01:54:26;;;;;;;11.43;10.25;;;;;;;17.37;27.91;94929.53;5052711;28;20053;-68
2021/11/25 01:56:53;;;;;;;10.60;9.50;;;;;;;17.57;27.84;94929.63;5056554;28;20041;-62
2021/11/25 01:59:20;;;;;;;11.57;9.77;;;;;;;16.98;28.56;94933.97;5038501;28;20490;-63
2021/11/25 02:01:47;;;;;;;10.50;9.40;;;;;;;16.93;28.73;94934.13;5039955;28;20052;-65
2021/11/25 02:04:14;;;;;;;11.18;10.07;;;;;;;16.70;29.18;94932.72;5052030;28;20363;-65
2021/11/25 02:06:42;;;;;;;10.23;9.13;;;;;;;17.67;27.61;94923.25;5050640;28;20052;-66
2021/11/25 02:09:10;;;;;;;9.32;8.43;;;;;;;17.10;28.35;94920.88;5049104;28;20440;-64
2021/11/25 02:11:38;;;;;;;9.77;8.88;;;;;;;17.53;27.83;94910.22;5056215;28;20349;-66
2021/11/25 02:14:06;;;;;;;9.98;8.98;;;;;;;15.97;30.24;94916.59;5046587;28;20061;-66
2021/11/25 02:16:35;;;;;;;9.88;8.88;;;;;;;16.06;30.23;94913.97;5036237;28;20048;-67
2021/11/25 02:19:03;;;;;;;10.40;9.30;;;;;;;15.97;30.48;94917.38;5047678;28;20049;-67
2021/11/25 02:21:30;;;;;;;9.70;8.70;;;;;;;16.61;29.32;94908.91;5060848;28;20068;-67
2021/11/25 02:23:57;;;;;;;11.48;8.90;;;;;;;16.48;29.71;94910.63;5060182;28;20472;-65
2021/11/25 02:26:25;;;;;;;9.88;8.90;;;;;;;16.18;30.40;94906.25;5055970;28;20049;-66
2021/11/25 02:28:52;;;;;;;10.38;9.35;;;;;;;16.82;29.09;94903.81;5055856;28;20440;-65
2021/11/25 02:31:20;;;;;;;10.88;9.77;;;;;;;15.84;30.77;94912.97;5055454;28;20491;-65
2021/11/25 02:33:47;;;;;;;10.95;9.73;;;;;;;15.51;31.27;94909.09;5050859;28;20056;-64
2021/11/25 02:36:18;;;;;;;10.18;9.18;;;;;;;16.68;29.36;94914.56;5049707;28;20060;-66
2021/11/25 02:38:49;;;;;;;10.68;9.63;;;;;;;17.14;28.65;94905.19;5034856;28;20042;-61
2021/11/25 02:41:16;;;;;;;12.45;11.15;;;;;;;15.83;31.22;94906.16;5035380;28;20057;-59
2021/11/25 02:43:44;;;;;;;15.10;12.52;;;;;;;15.46;32.09;94907.38;5045535;28;20475;-64
2021/11/25 02:46:14;;;;;;;14.65;13.10;;;;;;;15.52;31.85;94900.13;5036397;28;20064;-59
2021/11/25 02:48:50;;;;;;;15.48;13.15;;;;;;;15.46;32.37;94901.34;5035766;28;20048;-58
2021/11/25 02:51:20;;;;;;;14.27;12.48;;;;;;;15.33;32.78;94902.97;5041830;28;20447;-56
2021/11/25 02:53:47;;;;;;;13.05;11.30;;;;;;;17.09;29.57;94895.56;5062133;28;20053;-56
2021/11/25 02:56:21;;;;;;;13.70;12.40;;;;;;;15.78;31.39;94898.38;5037727;28;20116;-54
2021/11/25 02:58:49;;;;;;;14.55;13.02;;;;;;;16.00;31.46;94906.22;5055303;28;20040;-56
2021/11/25 03:01:39;;;;;;;16.00;13.50;;;;;;;15.61;32.15;94893.03;5021194;28;20056;-60
2021/11/25 03:04:07;;;;;;;14.85;13.32;;;;;;;16.30;30.87;94901.16;5054060;28;20056;-64
2021/11/25 03:06:35;;;;;;;15.13;13.52;;;;;;;15.16;32.95;94901.03;5055206;28;20052;-60
2021/11/25 03:09:04;;;;;;;15.68;14.07;;;;;;;15.39;32.37;94899.94;5032594;28;20045;-57
2021/11/25 03:11:31;;;;;;;16.63;14.57;;;;;;;15.33;32.68;94898.47;5035071;28;20056;-52
2021/11/25 03:14:03;;;;;;;15.18;13.68;;;;;;;15.51;32.22;94893.28;5047061;28;20056;-61
2021/11/25 03:16:31;;;;;;;16.73;14.48;;;;;;;16.13;31.33;94890.56;5050616;28;20045;-60
2021/11/25 03:18:58;;;;;;;16.17;14.25;;;;;;;15.95;31.26;94893.19;5034889;28;20049;-66
2021/11/25 03:21:26;;;;;;;19.50;14.60;;;;;;;15.39;32.10;94893.88;5044077;28;20478;-65
2021/11/25 03:23:54;;;;;;;16.75;14.70;;;;;;;15.24;32.65;94896.88;5066761;28;20056;-63
2021/11/25 03:26:26;;;;;;;17.05;15.25;;;;;;;15.49;32.31;94893.59;5055022;28;20325;-48
2021/11/25 03:28:54;;;;;;;17.40;15.13;;;;;;;15.40;32.17;94888.31;5055156;28;20083;-55
2021/11/25 03:31:26;;;;;;;17.58;15.73;;;;;;;15.27;32.49;94889.16;5054886;28;20358;-65
2021/11/25 03:33:55;;;;;;;19.60;15.88;;;;;;;15.06;32.77;94886.25;5054843;28;20478;-65
2021/11/25 03:36:23;;;;;;;16.90;15.10;;;;;;;15.23;32.25;94877.69;5037609;28;20049;-66
2021/11/25 03:38:52;;;;;;;18.25;16.30;;;;;;;14.77;33.50;94878.78;5055102;28;20055;-64
2021/11/25 03:41:19;;;;;;;18.35;15.80;;;;;;;14.95;32.72;94881.53;5047059;28;20060;-66
2021/11/25 03:43:47;;;;;;;17.75;15.45;;;;;;;15.02;32.80;94887.16;5035025;28;20356;-64
2021/11/25 03:46:14;;;;;;;20.02;16.17;;;;;;;15.05;33.06;94887.34;5053630;28;20060;-61
2021/11/25 03:48:41;;;;;;;17.58;15.10;;;;;;;15.48;32.06;94883.38;5045071;28;20060;-61
2021/11/25 03:51:10;;;;;;;16.98;15.18;;;;;;;15.17;32.47;94878.13;5039194;28;20053;-53
2021/11/25 03:53:40;;;;;;;19.60;16.30;;;;;;;15.31;32.24;94876.94;5061840;28;20048;-64
2021/11/25 03:56:07;;;;;;;18.92;16.10;;;;;;;15.15;32.72;94875.00;5054149;28;20052;-57
2021/11/25 03:58:36;;;;;;;17.65;15.60;;;;;;;15.04;32.76;94875.25;5054449;28;20049;-64
2021/11/25 04:01:05;;;;;;;16.25;14.60;;;;;;;15.48;31.89;94868.34;5053682;28;20064;-66
2021/11/25 04:03:32;;;;;;;18.48;14.80;;;;;;;15.15;32.54;94875.78;5054385;28;20371;-65
2021/11/25 04:05:59;;;;;;;17.45;15.50;;;;;;;15.14;32.50;94876.88;5053778;28;20056;-65
2021/11/25 04:08:26;;;;;;;17.17;15.07;;;;;;;15.33;32.44;94861.59;5054352;28;20083;-51
2021/11/25 04:10:55;;;;;;;16.75;14.80;;;;;;;15.77;31.56;94859.16;5054120;28;20045;-66
2021/11/25 04:13:22;;;;;;;18.65;15.15;;;;;;;15.00;33.11;94865.63;5054302;28;20059;-65
2021/11/25 04:15:51;;;;;;;16.73;14.48;;;;;;;15.20;32.55;94862.47;5053888;28;20352;-67
2021/11/25 04:18:20;;;;;;;17.52;15.63;;;;;;;14.79;33.31;94863.47;5041407;28;20059;-66
2021/11/25 04:20:52;;;;;;;17.08;15.27;;;;;;;15.10;32.91;94857.47;5040234;28;20380;-66
2021/11/25 04:23:34;;;;;;;15.73;14.02;;;;;;;15.37;32.18;94857.31;5038327;28;20068;-67
2021/11/25 04:26:02;;;;;;;16.70;14.77;;;;;;;15.67;31.89;94854.94;5056404;28;20052;-63
2021/11/25 04:28:30;;;;;;;16.42;14.52;;;;;;;14.76;33.29;94864.06;5055910;28;20049;-68
2021/11/25 04:36:29;;;;;;;16.23;14.52;;;;;;;15.03;33.11;94862.38;5057593;28;20040;-44
2021/11/25 04:38:57;;;;;;;16.27;14.45;;;;;;;15.19;32.31;94860.94;5057864;28;20403;-46
2021/11/25 04:41:24;;;;;;;16.38;14.68;;;;;;;15.28;32.48;94859.09;5057786;28;20071;-47
2021/11/25 04:43:51;;;;;;;16.60;14.90;;;;;;;14.86;33.04;94860.44;5041603;28;20053;-48
2021/11/25 04:46:18;;;;;;;17.50;14.90;;;;;;;15.86;31.72;94862.56;5057434;28;20048;-46
2021/11/25 04:48:45;;;;;;;17.67;15.77;;;;;;;15.08;32.68;94862.25;5057779;28;20452;-46
2021/11/25 04:51:13;;;;;;;18.30;15.63;;;;;;;14.67;33.43;94859.84;5060100;28;20336;-46
2021/11/25 04:53:40;;;;;;;17.60;15.73;;;;;;;14.75;33.26;94864.38;5044972;28;20060;-46
2021/11/25 04:56:07;;;;;;;17.48;15.57;;;;;;;14.46;33.88;94865.56;5056102;28;20052;-45
2021/11/25 04:58:35;;;;;;;18.50;15.95;;;;;;;14.88;33.07;94865.41;5057649;28;20056;-45
2021/11/25 05:01:03;;;;;;;17.48;15.55;;;;;;;15.16;32.24;94855.50;5057309;28;20041;-46
2021/11/25 05:03:30;;;;;;;17.38;15.57;;;;;;;14.65;33.49;94862.78;5057444;28;20063;-45
2021/11/25 05:05:57;;;;;;;17.15;15.45;;;;;;;14.73;33.08;94862.06;5056799;28;20053;-49
2021/11/25 05:08:24;;;;;;;19.40;16.02;;;;;;;14.47;33.55;94855.81;5056506;28;20044;-49
2021/11/25 05:10:52;;;;;;;17.08;15.15;;;;;;;14.53;33.68;94857.25;5057110;28;20060;-46
2021/11/25 05:13:19;;;;;;;17.23;15.43;;;;;;;14.67;33.50;94865.88;5039673;28;20052;-46
2021/11/25 05:15:46;;;;;;;15.68;14.10;;;;;;;17.04;29.58;94856.09;5056474;28;20061;-46
2021/11/25 05:18:13;;;;;;;18.83;14.73;;;;;;;15.97;30.71;94862.00;5037251;28;20060;-48
2021/11/25 05:20:41;;;;;;;14.77;13.27;;;;;;;16.43;30.34;94860.66;5036157;28;20052;-47
2021/11/25 05:23:08;;;;;;;15.05;13.45;;;;;;;15.71;31.02;94861.16;5062784;28;20053;-47
2021/11/25 05:25:35;;;;;;;15.32;13.73;;;;;;;14.99;32.34;94856.16;5046445;28;20049;-47
2021/11/25 05:28:02;;;;;;;16.52;13.48;;;;;;;15.64;31.45;94860.84;5035845;28;20052;-46
2021/11/25 05:30:32;;;;;;;19.27;13.48;;;;;;;15.68;31.37;94864.41;5036873;28;20061;-48
2021/11/25 05:33:00;;;;;;;13.55;12.15;;;;;;;15.65;31.38;94857.13;5036877;28;20049;-48
2021/11/25 05:35:28;;;;;;;13.30;11.90;;;;;;;16.55;30.12;94863.44;5049209;28;20045;-46
2021/11/25 05:37:55;;;;;;;13.57;11.50;;;;;;;15.90;30.80;94872.22;5036969;28;20056;-48
2021/11/25 05:40:22;;;;;;;12.32;11.00;;;;;;;16.20;30.39;94867.16;5036791;28;20041;-46
2021/11/25 05:42:50;;;;;;;13.30;11.65;;;;;;;15.94;31.01;94865.25;5036822;28;20067;-46
2021/11/25 05:45:19;;;;;;;12.50;11.10;;;;;;;16.65;29.66;94852.59;5047321;28;20049;-46
2021/11/25 05:47:47;;;;;;;15.10;12.20;;;;;;;16.13;30.40;94864.19;5041659;28;20056;-46
2021/11/25 05:50:18;;;;;;;14.05;11.45;;;;;;;16.02;30.61;94866.34;5036471;28;20076;-46
2021/11/25 05:52:49;;;;;;;12.73;11.38;;;;;;;16.55;29.62;94863.44;5068036;28;20040;-47
2021/11/25 05:55:17;;;;;;;13.30;11.73;;;;;;;15.99;31.18;94866.97;5058908;28;20053;-47
2021/11/25 05:57:44;;;;;;;12.27;10.95;;;;;;;15.62;31.62;94868.28;5055631;28;20287;-45
2021/11/25 06:00:13;;;;;;;12.25;10.95;;;;;;;17.02;29.57;94868.84;5037986;28;20433;-47
2021/11/25 06:02:43;;;;;;;16.45;11.57;;;;;;;17.88;27.40;94863.25;5035434;28;20049;-46
2021/11/25 06:05:11;;;;;;;14.48;10.98;;;;;;;15.97;31.93;94863.88;5050732;28;20045;-46
2021/11/25 06:07:42;;;;;;;11.82;9.90;;;;;;;16.45;29.99;94876.19;5039161;28;20045;-48
2021/11/25 06:10:09;;;;;;;11.63;10.40;;;;;;;17.60;27.92;94871.94;5036183;28;20050;-46
2021/11/25 06:12:36;;;;;;;11.55;10.25;;;;;;;17.78;27.67;94878.72;5036361;28;20053;-46
2021/11/25 06:15:05;;;;;;;13.13;10.95;;;;;;;15.48;31.75;94878.88;5046645;28;20052;-48
2021/11/25 06:17:32;;;;;;;11.40;10.20;;;;;;;15.14;32.37;94878.72;5036225;28;20045;-50
2021/11/25 06:19:59;;;;;;;16.67;9.85;;;;;;;15.58;32.76;94883.09;5036085;28;20056;-45
2021/11/25 06:22:27;;;;;;;12.40;10.23;;;;;;;16.23;30.64;94877.09;5058159;28;20079;-46
2021/11/25 06:24:54;;;;;;;13.02;10.30;;;;;;;16.13;30.60;94893.19;5055072;28;20053;-50
2021/11/25 06:27:21;;;;;;;14.55;13.00;;;;;;;16.39;30.35;94880.03;5040570;28;20049;-47
2021/11/25 06:29:48;;;;;;;12.43;9.80;;;;;;;16.56;29.99;94886.09;5035792;28;20045;-46
2021/11/25 06:32:16;;;;;;;16.48;10.98;;;;;;;15.63;32.66;94885.63;5051241;28;20387;-48
2021/11/25 06:34:43;;;;;;;13.20;10.18;;;;;;;15.57;32.04;94878.91;5044757;28;20080;-47
2021/11/25 06:37:10;;;;;;;12.18;10.02;;;;;;;15.48;31.80;94888.63;5055075;28;20052;-46
2021/11/25 06:39:37;;;;;;;12.02;9.60;;;;;;;16.43;30.24;94878.34;5054989;28;20044;-46
2021/11/25 06:42:04;;;;;;;11.38;9.90;;;;;;;16.14;30.60;94877.09;5048860;28;20055;-47
2021/11/25 06:44:31;;;;;;;11.82;9.48;;;;;;;15.71;31.37;94882.25;5048199;28;20048;-47
2021/11/25 06:47:00;;;;;;;12.05;10.27;;;;;;;15.84;30.54;94885.84;5055315;28;20045;-47
2021/11/25 06:49:27;;;;;;;12.23;9.52;;;;;;;16.11;30.65;94884.81;5055400;28;20056;-46
2021/11/25 06:51:54;;;;;;;12.70;10.00;;;;;;;15.68;31.29;94890.78;5062326;28;20052;-46
2021/11/25 06:54:21;;;;;;;11.45;9.55;;;;;;;16.43;30.44;94876.50;5055150;28;20055;-47
2021/11/25 06:56:48;;;;;;;17.02;9.70;;;;;;;16.59;30.29;94884.69;5055416;28;20044;-45
2021/11/25 06:59:15;;;;;;;10.98;9.73;;;;;;;16.68;29.81;94882.09;5055161;28;20053;-47
2021/11/25 07:01:43;;;;;;;11.15;9.57;;;;;;;16.07;30.74;94886.50;5037060;28;20045;-47
2021/11/25 07:04:12;;;;;;;12.15;9.55;;;;;;;17.06;29.37;94888.25;5039391;28;20048;-48
2021/11/25 07:06:39;;;;;;;12.70;9.32;;;;;;;16.15;30.72;94880.50;5043011;28;20049;-47
2021/11/25 07:09:06;;;;;;;10.77;9.68;;;;;;;16.61;30.21;94887.81;5054564;28;20049;-46
2021/11/25 07:11:33;;;;;;;10.82;9.73;;;;;;;17.72;27.93;94883.44;5049398;28;20045;-46
2021/11/25 07:14:01;;;;;;;10.80;9.30;;;;;;;17.51;28.40;94883.31;5037344;28;20385;-48
2021/11/25 07:16:28;;;;;;;11.93;9.00;;;;;;;16.27;30.60;94884.06;5042685;28;20049;-46
2021/11/25 07:18:55;;;;;;;10.93;8.65;;;;;;;16.43;30.26;94881.75;5044404;28;20367;-46
2021/11/25 07:21:22;;;;;;;9.52;8.50;;;;;;;15.99;30.99;94870.38;5055024;28;20486;-47
2021/11/25 07:23:49;;;;;;;9.73;8.52;;;;;;;16.54;30.13;94875.09;5073936;28;20053;-47
2021/11/25 07:26:16;;;;;;;11.43;8.82;;;;;;;15.78;31.35;94866.75;5055194;28;20355;-47
2021/11/25 07:28:43;;;;;;;12.88;8.75;;;;;;;16.73;29.65;94863.47;5053913;28;20056;-47
2021/11/25 07:31:11;;;;;;;10.73;8.95;;;;;;;16.28;30.80;94874.28;5054561;28;20049;-46
2021/11/25 07:33:38;;;;;;;11.70;8.73;;;;;;;15.66;31.93;94874.47;5054751;28;20047;-46
2021/11/25 07:36:06;;;;;;;8.77;7.72;;;;;;;18.09;27.50;94881.06;5052784;28;20368;-47
2021/11/25 07:38:33;;;;;;;9.65;8.02;;;;;;;16.36;29.81;94870.88;5039336;28;20041;-46
2021/11/25 07:41:00;;;;;;;15.52;9.02;;;;;;;16.10;30.89;94872.72;5053782;28;20045;-46
2021/11/25 07:43:28;;;;;;;12.60;9.30;;;;;;;15.80;31.20;94869.84;5051613;28;20052;-46
2021/11/25 07:45:56;;;;;;;11.48;9.05;;;;;;;15.66;31.62;94863.94;5052491;28;20351;-48
2021/11/25 07:48:23;;;;;;;11.15;8.88;;;;;;;16.11;30.59;94863.72;5054582;28;20049;-47
2021/11/25 07:50:51;;;;;;;12.85;9.15;;;;;;;16.19;31.14;94860.31;5053744;28;20451;-46
2021/11/25 07:53:18;;;;;;;12.50;9.30;;;;;;;17.16;29.25;94850.94;5059397;28;20065;-47
2021/11/25 07:55:45;;;;;;;9.68;8.52;;;;;;;17.96;27.65;94863.56;5050348;28;20049;-46
2021/11/25 07:58:12;;;;;;;12.30;8.82;;;;;;;17.93;27.81;94867.59;5037413;28;20049;-48
2021/11/25 08:00:39;;;;;;;13.65;11.15;;;;;;;16.17;30.60;94862.50;5054271;28;20351;-46
2021/11/25 08:03:06;;;;;;;14.23;11.05;;;;;;;15.77;31.60;94859.94;5036064;28;20443;-45
2021/11/25 08:05:34;;;;;;;15.10;11.20;;;;;;;16.23;30.90;94856.00;5048500;28;20477;-46
2021/11/25 08:08:01;;;;;;;14.05;11.30;;;;;;;16.19;30.68;94849.78;5036995;28;20045;-47
2021/11/25 08:10:29;;;;;;;11.90;10.48;;;;;;;16.17;30.98;94846.69;5054395;28;20047;-46
2021/11/25 08:13:02;;;;;;;13.25;11.00;;;;;;;16.24;30.77;94842.47;5053894;28;20053;-46
2021/11/25 08:15:29;;;;;;;14.02;11.00;;;;;;;15.81;31.63;94844.28;5054090;28;20052;-46
2021/11/25 08:17:57;;;;;;;15.90;10.73;;;;;;;16.09;31.10;94857.97;5054038;28;20475;-47
2021/11/25 08:20:24;;;;;;;14.27;11.50;;;;;;;15.84;31.54;94841.78;5053859;28;20049;-47
2021/11/25 08:22:52;;;;;;;12.82;10.63;;;;;;;16.07;31.12;94847.72;5070393;28;20382;-46
2021/11/25 08:25:21;;;;;;;15.20;11.68;;;;;;;16.03;31.19;94833.63;5062117;28;20044;-46
2021/11/25 08:27:50;;;;;;;14.20;12.18;;;;;;;16.89;29.57;94830.19;5051172;28;20048;-47
2021/11/25 08:30:17;;;;;;;12.90;10.82;;;;;;;16.31;30.31;94836.75;5051471;28;20056;-47
2021/11/25 08:32:44;;;;;;;12.23;10.35;;;;;;;16.04;30.68;94833.31;5050556;28;20040;-46
2021/11/25 08:35:12;;;;;;;16.33;10.35;;;;;;;15.92;30.65;94838.41;5044028;28;20048;-46
2021/11/25 08:37:39;;;;;;;12.15;9.70;;;;;;;16.01;30.68;94833.94;5053953;28;20045;-45
2021/11/25 08:40:07;;;;;;;11.00;9.43;;;;;;;16.49;30.02;94824.31;5053991;28;20045;-48
2021/11/25 08:42:34;;;;;;;11.13;9.23;;;;;;;16.92;29.09;94813.75;5053668;28;20439;-48
2021/11/25 08:45:02;;;;;;;11.13;8.90;;;;;;;16.60;29.55;94813.13;5042290;28;20037;-46
2021/11/25 08:47:29;;;;;;;10.50;9.40;;;;;;;16.20;30.50;94809.13;5053892;28;20463;-46
2021/11/25 08:49:56;;;;;;;10.75;9.20;;;;;;;15.85;30.99;94814.34;5040241;28;20433;-46
2021/11/25 08:52:23;;;;;;;11.23;9.20;;;;;;;16.02;30.57;94814.38;5057996;28;20040;-48
2021/11/25 08:54:50;;;;;;;11.57;9.02;;;;;;;16.31;30.38;94805.06;5053512;28;20052;-46
2021/11/25 08:57:18;;;;;;;11.23;9.52;;;;;;;15.94;30.83;94807.25;5053596;28;20546;-47
2021/11/25 08:59:45;;;;;;;12.05;9.70;;;;;;;16.20;30.35;94803.84;5053760;28;20056;-47
2021/11/25 09:02:12;;;;;;;14.68;9.23;;;;;;;16.32;30.37;94801.34;5053793;28;20056;-47
2021/11/25 09:04:39;;;;;;;12.27;8.95;;;;;;;16.01;30.79;94806.78;5056950;28;20048;-46
2021/11/25 09:07:06;;;;;;;9.32;8.32;;;;;;;16.11;30.50;94806.47;5057372;28;20340;-46
2021/11/25 09:09:34;;;;;;;13.07;8.77;;;;;;;16.32;30.09;94796.84;5057440;28;20048;-48
2021/11/25 09:12:01;;;;;;;10.95;9.55;;;;;;;16.54;29.72;94793.25;5057589;28;20048;-47
2021/11/25 09:14:28;;;;;;;12.23;9.10;;;;;;;17.03;28.85;94788.53;5053661;28;20110;-46
2021/11/25 09:16:55;;;;;;;11.57;10.00;;;;;;;16.32;30.27;94790.81;5057319;28;20059;-48
2021/11/25 09:19:22;;;;;;;10.77;8.73;;;;;;;16.31;30.22;94783.97;5053923;28;20049;-45
2021/11/25 09:21:49;;;;;;;11.70;9.55;;;;;;;16.56;29.80;94787.69;5053521;28;20045;-47
2021/11/25 09:24:17;;;;;;;10.27;8.05;;;;;;;16.65;29.61;94796.34;5059748;28;20059;-47
2021/11/25 09:26:44;;;;;;;10.82;8.65;;;;;;;16.33;29.89;94787.06;5057130;28;20044;-46
2021/11/25 09:29:14;;;;;;;9.70;8.70;;;;;;;16.02;30.66;94788.00;5056081;28;20055;-46
2021/11/25 09:31:41;;;;;;;10.15;8.90;;;;;;;16.94;29.06;94782.50;5056982;28;20645;-46
2021/11/25 09:34:08;;;;;;;9.85;8.55;;;;;;;16.92;28.96;94782.06;5043189;28;20757;-46
2021/11/25 09:36:35;;;;;;;11.48;8.55;;;;;;;16.80;29.37;94774.78;5056726;28;20056;-46
2021/11/25 09:39:05;;;;;;;9.82;8.45;;;;;;;16.21;30.26;94773.75;5056780;28;20045;-46
2021/11/25 09:41:32;;;;;;;10.65;8.82;;;;;;;17.66;28.11;94768.31;5056863;28;20332;-47
2021/11/25 09:44:00;;;;;;;10.38;9.18;;;;;;;16.82;29.08;94766.53;5056272;28;20052;-46
2021/11/25 09:46:28;;;;;;;11.90;9.23;;;;;;;16.48;29.90;94776.06;5056365;28;20060;-47
2021/11/25 09:48:58;;;;;;;13.32;10.80;;;;;;;16.55;29.98;94778.97;5056600;28;20052;-46
2021/11/25 09:51:26;;;;;;;9.65;8.57;;;;;;;18.12;27.25;94774.56;5059298;28;20040;-47
2021/11/25 09:53:54;;;;;;;10.40;8.50;;;;;;;17.54;28.30;94773.53;5047377;28;20482;-48
2021/11/25 09:56:21;;;;;;;9.30;8.07;;;;;;;18.78;26.05;94780.72;5035146;28;20049;-47
2021/11/25 09:58:51;;;;;;;9.88;8.73;;;;;;;17.03;28.87;94769.25;5042969;28;20055;-46
2021/11/25 10:01:22;;;;;;;12.27;10.02;;;;;;;16.86;29.25;94772.72;5055979;28;20056;-47
2021/11/25 10:03:52;;;;;;;13.98;9.23;;;;;;;18.24;27.37;94782.59;5049183;28;20064;-46
2021/11/25 10:06:21;;;;;;;10.60;9.50;;;;;;;17.13;28.63;94767.03;5042350;28;20709;-46
2021/11/25 10:08:48;;;;;;;12.35;11.05;;;;;;;17.06;28.93;94769.41;5036390;28;20372;-47
2021/11/25 10:11:22;;;;;;;13.90;9.65;;;;;;;16.32;29.90;94767.06;5050816;28;20068;-46
2021/11/25 10:13:56;;;;;;;15.13;11.05;;;;;;;16.20;30.08;94772.97;5051363;28;20047;-46
2021/11/25 10:16:30;;;;;;;13.13;10.63;;;;;;;15.96;30.66;94768.16;5056314;28;20068;-48
2021/11/25 10:19:10;;;;;;;10.68;9.50;;;;;;;17.31;28.63;94766.97;5039023;28;20372;-47
2021/11/25 10:21:41;;;;;;;12.00;10.00;;;;;;;16.44;29.83;94750.59;5059332;28;20044;-47
2021/11/25 10:24:08;;;;;;;12.18;9.68;;;;;;;16.07;30.42;94746.75;5063368;28;20052;-49
2021/11/25 10:26:35;;;;;;;10.55;9.25;;;;;;;16.25;30.22;94749.06;5042181;28;20045;-47
2021/11/25 10:29:07;;;;;;;11.15;9.27;;;;;;;17.47;28.48;94738.91;5035732;28;20045;-49
2021/11/25 10:31:43;;;;;;;11.98;9.70;;;;;;;17.22;28.70;94727.38;5053186;28;20053;-47
2021/11/25 10:34:20;;;;;;;11.25;9.90;;;;;;;16.72;29.15;94741.25;5035767;28;20045;-47
2021/11/25 10:42:33;;;;;;;10.23;8.90;;;;;;;16.20;30.31;94730.78;5055730;28;20051;-47
2021/11/25 10:45:01;;;;;;;10.47;8.43;;;;;;;16.22;29.89;94733.09;5055159;28;20052;-48
2021/11/25 10:47:30;;;;;;;10.32;9.10;;;;;;;16.69;29.31;94726.06;5046789;28;20053;-46
2021/11/25 10:49:58;;;;;;;10.27;8.55;;;;;;;16.91;29.05;94717.09;5038588;28;20498;-47
2021/11/25 10:52:28;;;;;;;11.65;8.48;;;;;;;16.67;29.03;94722.94;5052775;28;20056;-46
2021/11/25 10:55:01;;;;;;;9.93;8.68;;;;;;;16.76;28.91;94704.44;5052082;28;20053;-46
2021/11/25 10:57:43;;;;;;;9.85;8.60;;;;;;;16.37;29.67;94718.63;5055653;28;20044;-47
2021/11/25 11:00:14;;;;;;;10.18;8.93;;;;;;;17.06;29.10;94723.72;5055368;28;20041;-46
2021/11/25 11:02:41;;;;;;;10.57;9.48;;;;;;;17.21;28.47;94710.00;5047177;28;20049;-47
2021/11/25 11:05:15;;;;;;;11.75;9.07;;;;;;;16.04;30.46;94709.38;5052272;28;20052;-47
2021/11/25 11:07:46;;;;;;;10.88;9.50;;;;;;;16.68;29.75;94707.88;5035490;28;20470;-46
2021/11/25 11:10:21;;;;;;;10.93;9.32;;;;;;;16.70;29.89;94708.34;5039946;28;20402;-46
2021/11/25 11:15:50;;;;;;;9.98;8.85;;;;;;;16.91;29.31;94695.97;5035212;28;20049;-48
2021/11/25 11:20:48;;;;;;;9.70;8.40;;;;;;;17.42;28.30;94694.16;5043595;28;20041;-47
2021/11/25 11:23:18;;;;;;;9.27;8.20;;;;;;;16.64;29.55;94686.56;5036819;28;20048;-47
2021/11/25 11:25:45;;;;;;;8.57;7.70;;;;;;;16.43;30.03;94685.72;5037038;28;20049;-46
2021/11/25 11:28:15;;;;;;;11.07;8.93;;;;;;;17.29;28.54;94689.91;5034747;28;20049;-46
2021/11/25 11:30:42;;;;;;;16.42;9.50;;;;;;;16.64;30.06;94687.34;5042619;28;20051;-47
2021/11/25 11:33:12;;;;;;;10.52;9.32;;;;;;;18.27;27.30;94681.38;5047948;28;20049;-47
2021/11/25 11:35:40;;;;;;;11.98;9.50;;;;;;;17.05;28.94;94672.78;5053740;28;20045;-46
2021/11/25 11:38:13;;;;;;;11.95;9.75;;;;;;;17.03;29.15;94671.53;5054723;28;20336;-46
2021/11/25 11:40:42;;;;;;;15.77;8.75;;;;;;;18.01;27.72;94670.25;5053767;28;20045;-48
2021/11/25 11:43:10;;;;;;;11.40;9.18;;;;;;;18.47;26.87;94655.94;5044173;28;20053;-47